Time;durP1;ratioP1;P1;durP2;ratioP2;P2;SDS_P1;SDS_P2;PMS_P1;PMS_P2;Temp;Humidity;BMP_temperature;BMP_pressure;BME280_temperature;BME280_humidity;BME280_pressure;Samples;Min_cycle;Max_cycle;Signal;HPM_P1;HPM_P2
2022/10/31 00:04:48;;;;;;;0.10;0.10;;;;;;;11.45;100.00;101828.44;10537240;28;20031;-75
2022/10/31 00:09:48;;;;;;;0.00;0.00;;;;;;;11.62;100.00;101834.91;10531831;28;20419;-76
2022/10/31 00:14:49;;;;;;;0.00;0.00;;;;;;;11.81;100.00;101820.72;10560127;28;20024;-75
2022/10/31 00:19:49;;;;;;;0.10;0.10;;;;;;;11.92;100.00;101822.41;10573945;28;20075;-76
2022/10/31 00:24:49;;;;;;;0.10;0.10;;;;;;;11.99;100.00;101828.88;10573325;28;20272;-76
2022/10/31 00:29:49;;;;;;;0.08;0.08;;;;;;;12.03;100.00;101827.59;10573672;28;20015;-76
2022/10/31 00:34:50;;;;;;;0.00;0.00;;;;;;;12.08;100.00;101843.19;10552185;28;20107;-76
2022/10/31 00:39:50;;;;;;;0.10;0.10;;;;;;;12.14;100.00;101835.44;10540753;28;20030;-76
2022/10/31 00:44:50;;;;;;;0.10;0.10;;;;;;;12.16;100.00;101837.97;10555445;28;20016;-75
2022/10/31 00:49:51;;;;;;;0.00;0.00;;;;;;;12.23;100.00;101842.56;10530714;28;20012;-76
2022/10/31 00:54:51;;;;;;;0.10;0.10;;;;;;;12.29;100.00;101846.50;10531695;28;20032;-76
2022/10/31 00:59:51;;;;;;;0.10;0.10;;;;;;;12.31;100.00;101854.38;10566221;28;20031;-76
2022/10/31 01:04:51;;;;;;;0.10;0.10;;;;;;;12.33;100.00;101855.03;10536979;28;20032;-75
2022/10/31 01:09:52;;;;;;;0.10;0.10;;;;;;;12.29;100.00;101867.84;10530747;28;20023;-75
2022/10/31 01:14:52;;;;;;;0.10;0.10;;;;;;;12.23;100.00;101873.78;10530760;28;20030;-74
2022/10/31 01:19:52;;;;;;;0.03;0.03;;;;;;;12.18;100.00;101868.84;10533542;28;20012;-75
2022/10/31 01:24:53;;;;;;;0.10;0.10;;;;;;;12.13;100.00;101887.16;10537655;28;20020;-75
2022/10/31 01:29:54;;;;;;;0.00;0.00;;;;;;;12.16;100.00;101894.06;10530463;28;20047;-75
2022/10/31 01:34:55;;;;;;;0.05;0.05;;;;;;;12.18;100.00;101900.06;10530416;28;20043;-76
2022/10/31 01:39:55;;;;;;;0.08;0.08;;;;;;;12.20;100.00;101892.78;10538208;28;20470;-76
2022/10/31 01:44:59;;;;;;;0.08;0.08;;;;;;;12.29;100.00;101904.41;10566825;28;20103;-76
2022/10/31 01:50:02;;;;;;;0.10;0.10;;;;;;;12.42;100.00;101904.94;10537048;28;20036;-76
2022/10/31 01:55:07;;;;;;;0.10;0.10;;;;;;;12.47;100.00;101908.03;10537717;28;20042;-76
2022/10/31 02:00:09;;;;;;;0.10;0.10;;;;;;;12.46;100.00;101907.19;10574818;28;20027;-76
2022/10/31 02:05:14;;;;;;;0.10;0.10;;;;;;;12.40;100.00;101923.81;10567191;28;20023;-75
2022/10/31 02:10:15;;;;;;;0.10;0.10;;;;;;;12.33;100.00;101914.66;10553090;28;20045;-75
2022/10/31 02:15:15;;;;;;;0.10;0.10;;;;;;;12.29;100.00;101931.13;10537159;28;20065;-76
2022/10/31 02:20:24;;;;;;;0.10;0.10;;;;;;;12.22;100.00;101934.38;10547214;28;20016;-75
2022/10/31 02:25:40;;;;;;;0.10;0.10;;;;;;;12.22;100.00;101934.38;10516605;28;20382;-75
2022/10/31 02:30:47;;;;;;;0.10;0.10;;;;;;;12.21;100.00;101931.84;10536145;28;20043;-76
2022/10/31 02:36:04;;;;;;;0.10;0.10;;;;;;;12.20;100.00;101939.00;10536067;28;20044;-75
2022/10/31 02:41:25;;;;;;;0.03;0.03;;;;;;;12.19;100.00;101941.84;10535870;28;20039;-76
2022/10/31 02:46:34;;;;;;;0.10;0.10;;;;;;;12.16;100.00;101948.31;10535729;28;20066;-75
2022/10/31 02:51:34;;;;;;;0.10;0.10;;;;;;;12.13;100.00;101948.59;10564930;28;20042;-76
2022/10/31 02:56:34;;;;;;;0.10;0.10;;;;;;;12.06;100.00;101947.47;10537855;22;20032;-78
2022/10/31 03:02:09;;;;;;;0.10;0.10;;;;;;;12.03;100.00;101953.09;10538405;28;20024;-77
2022/10/31 03:07:15;;;;;;;0.10;0.10;;;;;;;12.00;100.00;101964.06;10452303;28;20412;-77
2022/10/31 03:12:15;;;;;;;0.10;0.10;;;;;;;11.96;100.00;101960.00;10462299;28;20013;-78
2022/10/31 03:17:25;;;;;;;0.10;0.10;;;;;;;11.94;100.00;101976.13;10462439;28;20021;-77
2022/10/31 03:22:29;;;;;;;0.00;0.00;;;;;;;11.94;100.00;101980.63;10470189;28;20336;-78
2022/10/31 03:27:33;;;;;;;0.00;0.00;;;;;;;11.87;100.00;101974.16;10456806;28;20697;-78
2022/10/31 03:32:43;;;;;;;0.00;0.00;;;;;;;11.83;100.00;101975.41;10460511;28;20021;-78
2022/10/31 03:37:44;;;;;;;0.10;0.10;;;;;;;11.79;100.00;101989.03;10460185;28;20135;-77
2022/10/31 03:42:53;;;;;;;0.10;0.10;;;;;;;11.75;100.00;101992.09;10461023;28;20102;-78
2022/10/31 03:47:55;;;;;;;0.10;0.10;;;;;;;11.72;100.00;101998.59;10461618;28;20024;-78
2022/10/31 03:53:41;;;;;;;0.10;0.10;;;;;;;11.67;100.00;102000.81;10492598;28;20509;-77
2022/10/31 03:58:55;;;;;;;0.00;0.00;;;;;;;11.64;100.00;102014.44;10462909;28;20152;-78
2022/10/31 04:03:56;;;;;;;0.10;0.10;;;;;;;11.62;100.00;102013.72;10483806;28;20032;-77
2022/10/31 04:09:01;;;;;;;0.10;0.10;;;;;;;11.56;100.00;102009.78;10460238;28;20104;-78
2022/10/31 04:14:04;;;;;;;0.10;0.10;;;;;;;11.49;100.00;102013.09;10461296;28;20061;-77
2022/10/31 04:19:04;;;;;;;0.10;0.10;;;;;;;11.44;100.00;102015.34;10443052;28;20025;-78
2022/10/31 04:24:05;;;;;;;0.10;0.10;;;;;;;11.40;100.00;102017.44;10460675;28;20443;-78
2022/10/31 04:29:05;;;;;;;0.10;0.10;;;;;;;11.36;100.00;102018.69;10473645;28;20191;-78
2022/10/31 04:34:07;;;;;;;0.10;0.10;;;;;;;11.36;100.00;102016.03;10489821;28;20112;-78
2022/10/31 04:39:07;;;;;;;0.00;0.00;;;;;;;11.43;100.00;102024.31;10465977;28;20078;-77
2022/10/31 04:44:07;;;;;;;0.10;0.10;;;;;;;11.49;100.00;102029.97;10496251;28;20017;-78
2022/10/31 04:49:08;;;;;;;0.00;0.00;;;;;;;11.53;100.00;102027.88;10489967;28;20024;-77
2022/10/31 04:54:08;;;;;;;0.10;0.10;;;;;;;11.56;100.00;102031.13;10455719;28;20033;-77
2022/10/31 04:59:08;;;;;;;0.00;0.00;;;;;;;11.61;100.00;102033.38;10459595;28;20051;-78
2022/10/31 05:04:08;;;;;;;0.03;0.03;;;;;;;11.62;100.00;102037.72;10458695;28;20025;-77
2022/10/31 05:09:09;;;;;;;0.10;0.10;;;;;;;11.63;100.00;102034.06;10458366;28;20116;-77
2022/10/31 05:14:09;;;;;;;0.00;0.00;;;;;;;11.61;100.00;102024.53;10467774;28;20030;-78
2022/10/31 05:19:09;;;;;;;0.10;0.10;;;;;;;11.57;100.00;102022.13;10468789;28;20021;-78
2022/10/31 05:24:09;;;;;;;0.10;0.10;;;;;;;11.55;100.00;102017.94;10476103;28;20067;-77
2022/10/31 05:29:10;;;;;;;0.10;0.10;;;;;;;11.53;100.00;102014.53;10489158;28;20107;-77
2022/10/31 05:34:10;;;;;;;0.00;0.00;;;;;;;11.48;100.00;102027.44;10465294;28;20048;-78
2022/10/31 05:39:10;;;;;;;0.10;0.10;;;;;;;11.48;100.00;102035.44;10464767;28;20104;-77
2022/10/31 05:44:11;;;;;;;0.10;0.10;;;;;;;11.45;100.00;102036.56;10446305;28;20407;-77
2022/10/31 05:49:11;;;;;;;0.10;0.10;;;;;;;11.44;100.00;102042.88;10464961;28;20021;-77
2022/10/31 05:54:11;;;;;;;0.10;0.10;;;;;;;11.44;100.00;102042.03;10483113;28;20063;-78
2022/10/31 05:59:11;;;;;;;0.10;0.10;;;;;;;11.39;100.00;102045.09;10503870;28;20020;-78
2022/10/31 06:04:12;;;;;;;0.00;0.00;;;;;;;11.42;100.00;102042.16;10492897;28;20076;-78
2022/10/31 06:09:12;;;;;;;0.10;0.10;;;;;;;11.39;100.00;102036.25;10444737;28;20041;-78
2022/10/31 06:14:12;;;;;;;0.10;0.10;;;;;;;11.36;100.00;102047.19;10464003;28;20016;-78
2022/10/31 06:19:12;;;;;;;0.10;0.10;;;;;;;11.29;100.00;102050.41;10473786;28;20024;-78
2022/10/31 06:24:14;;;;;;;0.10;0.10;;;;;;;11.25;100.00;102054.31;10504932;28;20024;-78
2022/10/31 06:29:14;;;;;;;0.10;0.10;;;;;;;11.21;100.00;102047.56;10503401;28;20016;-78
2022/10/31 06:34:15;;;;;;;0.10;0.10;;;;;;;11.17;100.00;102061.28;10470918;28;20403;-77
2022/10/31 06:39:15;;;;;;;0.10;0.10;;;;;;;11.14;100.00;102067.75;10486336;28;20021;-78
2022/10/31 06:44:15;;;;;;;0.10;0.10;;;;;;;11.12;100.00;102061.69;10502529;28;20017;-78
2022/10/31 06:49:16;;;;;;;0.00;0.00;;;;;;;11.12;100.00;102076.84;10501783;28;20048;-78
2022/10/31 06:54:16;;;;;;;0.10;0.10;;;;;;;11.10;100.00;102082.31;10497017;28;20029;-78
2022/10/31 06:59:17;;;;;;;0.10;0.10;;;;;;;11.11;100.00;102099.97;10502437;28;20070;-78
2022/10/31 07:04:17;;;;;;;0.10;0.10;;;;;;;11.13;100.00;102098.03;10472281;28;20013;-78
2022/10/31 07:09:18;;;;;;;0.00;0.00;;;;;;;11.19;100.00;102105.50;10442030;28;20100;-78
2022/10/31 07:14:18;;;;;;;0.10;0.10;;;;;;;11.23;100.00;102114.94;10460962;28;20025;-79
2022/10/31 07:19:18;;;;;;;0.10;0.10;;;;;;;11.25;100.00;102107.66;10460189;28;20460;-78
2022/10/31 07:24:19;;;;;;;0.10;0.10;;;;;;;11.25;100.00;102106.81;10461032;28;20016;-78
2022/10/31 07:29:19;;;;;;;0.10;0.10;;;;;;;11.22;100.00;102102.56;10477281;28;20467;-78
2022/10/31 07:34:19;;;;;;;0.10;0.10;;;;;;;11.21;100.00;102111.56;10489480;28;20422;-78
2022/10/31 07:39:20;;;;;;;0.10;0.10;;;;;;;11.20;100.00;102106.34;10488261;28;20104;-78
2022/10/31 07:44:20;;;;;;;0.10;0.10;;;;;;;11.22;100.00;102107.06;10459743;28;20028;-78
2022/10/31 07:49:20;;;;;;;0.10;0.10;;;;;;;11.26;100.00;102127.19;10500400;28;20551;-77
2022/10/31 07:54:20;;;;;;;0.10;0.10;;;;;;;11.29;100.00;102133.09;10501264;28;20390;-78
2022/10/31 07:59:21;;;;;;;0.00;0.00;;;;;;;11.31;100.00;102132.94;10482728;28;20392;-77
2022/10/31 08:04:21;;;;;;;0.00;0.00;;;;;;;11.30;100.00;102137.44;10493455;28;20020;-78
2022/10/31 08:09:22;;;;;;;0.10;0.10;;;;;;;11.28;100.00;102133.22;10497116;28;20035;-78
2022/10/31 08:14:22;;;;;;;0.00;0.00;;;;;;;11.27;100.00;102124.38;10493480;28;20091;-78
2022/10/31 08:19:22;;;;;;;0.10;0.10;;;;;;;11.37;100.00;102131.56;10498015;28;20622;-78
2022/10/31 08:24:25;;;;;;;0.10;0.10;;;;;;;11.55;100.00;102136.19;10498868;28;20020;-77
2022/10/31 08:29:25;;;;;;;0.00;0.00;;;;;;;11.71;100.00;102127.66;10498399;28;20025;-78
2022/10/31 08:34:26;;;;;;;0.00;0.00;;;;;;;11.81;100.00;102134.84;10475202;28;20025;-77
2022/10/31 08:39:26;;;;;;;0.10;0.10;;;;;;;11.87;100.00;102129.88;10448127;28;20032;-78
2022/10/31 08:44:26;;;;;;;0.10;0.10;;;;;;;12.08;100.00;102136.94;10447259;28;20070;-78
2022/10/31 08:49:27;;;;;;;0.10;0.10;;;;;;;12.11;100.00;102134.84;10475349;28;20031;-77
2022/10/31 08:54:27;;;;;;;0.00;0.00;;;;;;;12.26;100.00;102139.78;10517116;22;20040;-77
2022/10/31 08:59:27;;;;;;;0.10;0.10;;;;;;;12.45;100.00;102146.00;10553469;28;20491;-76
2022/10/31 09:04:27;;;;;;;0.00;0.00;;;;;;;12.52;100.00;102140.94;10535654;28;20023;-77
2022/10/31 09:09:28;;;;;;;0.00;0.00;;;;;;;12.59;100.00;102130.53;10505502;28;20016;-76
2022/10/31 09:14:28;;;;;;;0.10;0.10;;;;;;;12.87;100.00;102116.31;10522668;28;20116;-77
2022/10/31 09:19:28;;;;;;;0.00;0.00;;;;;;;13.04;100.00;102112.06;10519742;28;20123;-76
2022/10/31 09:24:28;;;;;;;0.10;0.10;;;;;;;13.22;100.00;102124.69;10513611;28;20107;-77
2022/10/31 09:29:29;;;;;;;0.10;0.10;;;;;;;13.16;100.00;102117.25;10523614;28;20036;-77
2022/10/31 09:34:29;;;;;;;0.00;0.00;;;;;;;13.33;100.00;102124.56;10509188;28;20089;-78
2022/10/31 09:39:29;;;;;;;0.10;0.10;;;;;;;13.49;100.00;102130.13;10508627;28;20039;-77
2022/10/31 09:44:39;;;;;;;0.10;0.10;;;;;;;13.50;100.00;102145.22;10532359;28;20263;-77
2022/10/31 09:49:48;;;;;;;0.03;0.03;;;;;;;13.38;100.00;102149.06;10529241;28;20020;-78
2022/10/31 09:54:59;;;;;;;0.08;0.08;;;;;;;13.40;100.00;102151.56;10515836;28;20024;-76
2022/10/31 10:00:00;;;;;;;0.10;0.10;;;;;;;13.32;100.00;102150.47;10519999;28;20063;-77
2022/10/31 10:05:04;;;;;;;0.10;0.10;;;;;;;13.22;100.00;102151.44;10524008;28;20217;-77
2022/10/31 10:10:17;;;;;;;0.03;0.03;;;;;;;13.13;100.00;102155.84;10487299;28;20086;-77
2022/10/31 10:15:54;;;;;;;0.03;0.03;;;;;;;13.00;100.00;102152.59;10497788;28;20305;-77
2022/10/31 10:21:00;;;;;;;0.10;0.10;;;;;;;12.97;100.00;102155.56;10500643;28;20059;-77
2022/10/31 10:26:18;;;;;;;0.10;0.10;;;;;;;13.07;100.00;102154.56;10512527;28;20101;-77
2022/10/31 10:31:32;;;;;;;0.00;0.00;;;;;;;13.09;100.00;102149.94;10514605;28;20055;-78
2022/10/31 10:36:42;;;;;;;;;;;;;;;13.06;100.00;102144.00;10510162;28;20099;-78
2022/10/31 10:41:47;;;;;;;0.00;0.00;;;;;;;13.12;100.00;102144.28;10512403;28;19916;-78
2022/10/31 10:52:20;;;;;;;0.10;0.10;;;;;;;13.38;100.00;102126.78;10494670;28;20020;-77
2022/10/31 10:57:29;;;;;;;0.07;0.07;;;;;;;13.55;100.00;102123.34;10514325;28;20028;-76
2022/10/31 11:02:32;;;;;;;0.10;0.10;;;;;;;13.57;100.00;102116.00;10526125;28;20458;-77
2022/10/31 11:07:39;;;;;;;0.00;0.00;;;;;;;13.65;100.00;102105.41;10514223;28;20027;-77
2022/10/31 11:12:40;;;;;;;0.00;0.00;;;;;;;13.75;100.00;102108.03;10503590;28;20352;-76
2022/10/31 11:17:41;;;;;;;0.10;0.10;;;;;;;13.88;100.00;102103.19;10506752;28;20213;-78
2022/10/31 11:22:46;;;;;;;0.00;0.00;;;;;;;13.94;100.00;102105.25;10507902;28;20032;-77
2022/10/31 11:27:47;;;;;;;0.08;0.08;;;;;;;14.12;100.00;102112.50;10521223;28;20095;-77
2022/10/31 11:32:52;;;;;;;0.00;0.00;;;;;;;14.19;100.00;102106.34;10473145;28;20111;-78
2022/10/31 11:37:54;;;;;;;0.00;0.00;;;;;;;14.04;100.00;102097.16;10519945;28;20019;-78
2022/10/31 11:42:59;;;;;;;0.00;0.00;;;;;;;13.98;100.00;102095.91;10514188;28;20378;-77
2022/10/31 11:48:01;;;;;;;0.03;0.03;;;;;;;13.98;100.00;102090.56;10532761;28;20020;-77
2022/10/31 11:53:03;;;;;;;0.10;0.10;;;;;;;14.00;100.00;102093.09;10532293;28;20027;-78
2022/10/31 11:58:04;;;;;;;0.10;0.10;;;;;;;14.04;100.00;102076.56;10515300;28;20029;-78
2022/10/31 12:03:13;;;;;;;0.00;0.00;;;;;;;14.06;100.00;102086.31;10495649;28;20032;-77
2022/10/31 12:08:14;;;;;;;0.10;0.10;;;;;;;14.04;100.00;102089.13;10519255;28;20432;-77
2022/10/31 12:13:33;;;;;;;0.00;0.00;;;;;;;14.01;100.00;102081.38;10499213;28;20028;-77
2022/10/31 12:18:48;;;;;;;0.10;0.10;;;;;;;14.02;100.00;102075.88;10500175;28;20017;-78
2022/10/31 12:23:57;;;;;;;0.00;0.00;;;;;;;13.98;100.00;102077.16;10514632;28;20110;-77
2022/10/31 12:29:21;;;;;;;0.08;0.08;;;;;;;14.00;100.00;102077.03;10515532;28;20028;-78
2022/10/31 12:34:25;;;;;;;0.00;0.00;;;;;;;14.10;100.00;102072.44;10534685;28;20378;-78
2022/10/31 12:40:09;;;;;;;0.00;0.00;;;;;;;14.24;100.00;102068.38;10513774;28;20024;-78
2022/10/31 12:45:40;;;;;;;0.10;0.10;;;;;;;14.15;100.00;102061.28;10509919;28;20047;-78
2022/10/31 12:50:58;;;;;;;0.10;0.10;;;;;;;13.84;100.00;102056.25;10506347;28;20474;-78
2022/10/31 12:56:36;;;;;;;0.10;0.10;;;;;;;13.66;100.00;102058.06;10503568;28;20438;-78
2022/10/31 13:01:59;;;;;;;0.10;0.10;;;;;;;13.67;100.00;102051.69;10535313;28;20481;-80
2022/10/31 13:07:08;;;;;;;0.10;0.10;;;;;;;13.72;100.00;102060.13;10506754;28;20031;-78
2022/10/31 13:12:12;;;;;;;0.00;0.00;;;;;;;13.74;100.00;102052.81;10491564;28;20025;-78
2022/10/31 13:17:26;;;;;;;0.10;0.10;;;;;;;13.69;100.00;102039.84;10475159;28;20040;-78
2022/10/31 13:22:30;;;;;;;;;;;;;;;13.66;100.00;102023.25;10498102;28;20017;-77
2022/10/31 13:27:46;;;;;;;0.00;0.00;;;;;;;13.66;100.00;102034.81;10492420;28;20230;-77
2022/10/31 13:32:58;;;;;;;0.00;0.00;;;;;;;13.52;100.00;102027.28;10517208;28;20023;-79
2022/10/31 13:38:19;;;;;;;0.00;0.00;;;;;;;13.40;100.00;102020.44;10501410;28;20020;-78
2022/10/31 13:43:41;;;;;;;0.10;0.10;;;;;;;13.26;100.00;102006.53;10535347;28;20072;-78
2022/10/31 13:48:42;;;;;;;0.00;0.00;;;;;;;13.19;100.00;101985.88;10505284;28;20364;-79
2022/10/31 13:53:51;;;;;;;0.10;0.10;;;;;;;13.06;100.00;101981.72;10504580;28;20379;-78
2022/10/31 13:59:06;;;;;;;0.10;0.10;;;;;;;12.99;100.00;101959.19;10538894;28;20043;-78
2022/10/31 14:04:23;;;;;;;0.10;0.10;;;;;;;13.00;100.00;101960.03;10498967;28;20017;-79
2022/10/31 14:09:27;;;;;;;0.10;0.10;;;;;;;13.01;100.00;101941.19;10527353;28;20013;-79
2022/10/31 14:14:34;;;;;;;0.10;0.10;;;;;;;13.02;100.00;101942.84;10519051;28;20019;-78
2022/10/31 14:19:34;;;;;;;0.00;0.00;;;;;;;12.99;100.00;101924.44;10531147;28;20035;-78
2022/10/31 14:24:36;;;;;;;0.10;0.10;;;;;;;12.94;100.00;101910.66;10502620;28;20034;-79
2022/10/31 14:29:36;;;;;;;0.10;0.10;;;;;;;12.87;100.00;101902.38;10521242;28;20020;-78
2022/10/31 14:34:42;;;;;;;0.00;0.00;;;;;;;12.77;100.00;101885.56;10526141;28;20082;-78
2022/10/31 14:40:07;;;;;;;0.00;0.00;;;;;;;12.66;100.00;101885.75;10537997;28;20115;-77
2022/10/31 14:45:13;;;;;;;0.10;0.10;;;;;;;12.59;100.00;101884.63;10521164;28;20096;-79
2022/10/31 14:50:41;;;;;;;0.00;0.00;;;;;;;12.54;100.00;101902.97;10522743;28;20020;-78
2022/10/31 14:55:47;;;;;;;0.10;0.10;;;;;;;12.58;100.00;101891.81;10480626;22;20045;-77
2022/10/31 15:00:54;;;;;;;0.10;0.10;;;;;;;12.61;100.00;101894.19;10394080;28;20527;-77
2022/10/31 15:05:59;;;;;;;0.10;0.10;;;;;;;12.58;100.00;101889.16;10424663;28;20113;-77
2022/10/31 15:11:09;;;;;;;0.10;0.10;;;;;;;12.55;100.00;101880.59;10444793;28;20391;-77
2022/10/31 15:16:11;;;;;;;0.03;0.03;;;;;;;12.48;100.00;101866.09;10442828;28;20032;-77
2022/10/31 15:21:16;;;;;;;0.10;0.10;;;;;;;12.43;100.00;101856.72;10420957;28;20120;-78
2022/10/31 15:26:21;;;;;;;0.00;0.00;;;;;;;12.35;100.00;101829.88;10391596;28;20036;-77
2022/10/31 15:31:21;;;;;;;0.10;0.10;;;;;;;12.29;100.00;101827.78;10414874;28;20079;-78
2022/10/31 15:36:24;;;;;;;0.10;0.10;;;;;;;12.22;100.00;101818.69;10440171;28;20591;-77
2022/10/31 15:41:39;;;;;;;0.00;0.00;;;;;;;12.16;100.00;101819.28;10429330;28;20031;-78
2022/10/31 15:46:40;;;;;;;0.10;0.10;;;;;;;12.14;100.00;101830.09;10424560;28;20583;-79
2022/10/31 15:51:40;;;;;;;0.10;0.10;;;;;;;12.15;100.00;101821.06;10427778;28;20108;-78
2022/10/31 15:56:43;;;;;;;0.10;0.10;;;;;;;12.15;100.00;101822.91;10426965;28;20029;-79
2022/10/31 16:02:00;;;;;;;0.15;0.15;;;;;;;12.12;100.00;101829.38;10432989;28;20025;-79
2022/10/31 16:07:21;;;;;;;0.10;0.10;;;;;;;12.11;100.00;101846.41;10432317;28;20035;-78
2022/10/31 16:12:24;;;;;;;0.10;0.10;;;;;;;12.08;100.00;101836.00;10427059;28;20031;-79
2022/10/31 16:17:26;;;;;;;0.10;0.10;;;;;;;12.08;100.00;101833.34;10446413;28;20028;-78
2022/10/31 16:22:30;;;;;;;0.10;0.10;;;;;;;12.05;100.00;101812.25;10432801;28;20071;-77
2022/10/31 16:27:33;;;;;;;0.10;0.10;;;;;;;11.98;100.00;101793.31;10419562;28;20498;-78
2022/10/31 16:32:34;;;;;;;0.08;0.08;;;;;;;11.94;100.00;101810.59;10413784;28;20275;-77
2022/10/31 16:37:42;;;;;;;0.10;0.10;;;;;;;11.94;100.00;101815.94;10422855;28;20032;-78
2022/10/31 16:42:44;;;;;;;0.10;0.10;;;;;;;11.92;100.00;101817.91;10433252;28;20477;-77
2022/10/31 16:47:44;;;;;;;0.10;0.10;;;;;;;11.92;100.00;101793.03;10421588;28;20608;-78
2022/10/31 16:52:46;;;;;;;0.00;0.00;;;;;;;11.90;100.00;101800.38;10432417;28;20152;-77
2022/10/31 16:57:52;;;;;;;0.10;0.10;;;;;;;11.88;100.00;101797.00;10429172;28;20084;-78
2022/10/31 17:02:56;;;;;;;0.10;0.10;;;;;;;11.88;100.00;101797.00;10428261;28;20021;-78
2022/10/31 17:07:56;;;;;;;0.03;0.03;;;;;;;11.84;100.00;101793.75;10432120;28;20029;-79
2022/10/31 17:12:58;;;;;;;0.10;0.10;;;;;;;11.85;100.00;101802.59;10445352;28;20471;-78
2022/10/31 17:17:59;;;;;;;0.10;0.10;;;;;;;11.81;100.00;101801.16;10431654;28;20412;-78
2022/10/31 17:22:59;;;;;;;0.10;0.10;;;;;;;11.82;100.00;101801.03;10435789;28;20024;-77
2022/10/31 17:27:59;;;;;;;0.10;0.10;;;;;;;11.78;100.00;101805.84;10449911;28;20025;-79
2022/10/31 17:33:00;;;;;;;0.10;0.10;;;;;;;11.75;100.00;101795.44;10410281;28;20351;-77
2022/10/31 17:38:00;;;;;;;0.10;0.10;;;;;;;11.72;100.00;101793.06;10449983;28;20033;-78
2022/10/31 17:43:00;;;;;;;0.00;0.00;;;;;;;11.71;100.00;101779.84;10431945;28;20028;-76
2022/10/31 17:48:00;;;;;;;0.00;0.00;;;;;;;11.72;100.00;101790.41;10429607;28;20109;-78
2022/10/31 17:53:01;;;;;;;0.10;0.10;;;;;;;11.70;100.00;101776.34;10411530;28;20388;-78
2022/10/31 17:58:01;;;;;;;0.10;0.10;;;;;;;11.68;100.00;101775.63;10433318;28;20262;-77
2022/10/31 18:03:02;;;;;;;0.10;0.10;;;;;;;11.65;100.00;101769.75;10421290;28;20032;-78
2022/10/31 18:08:04;;;;;;;0.00;0.00;;;;;;;11.61;100.00;101765.69;10450391;28;20028;-78
2022/10/31 18:13:04;;;;;;;0.00;0.00;;;;;;;11.56;100.00;101766.94;10439746;28;20020;-77
2022/10/31 18:18:06;;;;;;;0.10;0.10;;;;;;;11.55;100.00;101769.78;10430019;28;20088;-78
2022/10/31 18:23:06;;;;;;;0.00;0.00;;;;;;;11.51;100.00;101747.84;10427883;28;20029;-79
2022/10/31 18:28:06;;;;;;;0.10;0.10;;;;;;;11.43;100.00;101722.88;10430105;28;20024;-78
2022/10/31 18:33:07;;;;;;;0.00;0.00;;;;;;;11.38;100.00;101712.63;10448177;28;20036;-79
2022/10/31 18:38:08;;;;;;;0.10;0.10;;;;;;;11.37;100.00;101718.09;10427044;28;20035;-77
2022/10/31 18:43:08;;;;;;;0.10;0.10;;;;;;;11.35;100.00;101720.09;10415947;28;20022;-77
2022/10/31 18:48:12;;;;;;;0.10;0.10;;;;;;;11.31;100.00;101723.06;10418268;28;20017;-77
2022/10/31 18:53:12;;;;;;;0.05;0.05;;;;;;;11.28;100.00;101712.63;10437042;28;20036;-77
2022/10/31 18:58:13;;;;;;;0.10;0.10;;;;;;;11.27;100.00;101721.63;10408353;28;20386;-77
2022/10/31 19:03:13;;;;;;;0.10;0.10;;;;;;;11.24;100.00;101713.06;10432804;28;20117;-77
2022/10/31 19:08:14;;;;;;;0.00;0.00;;;;;;;11.17;100.00;101706.59;10420694;28;20079;-78
2022/10/31 19:13:15;;;;;;;0.10;0.10;;;;;;;11.16;100.00;101704.94;10433651;28;20344;-77
2022/10/31 19:18:15;;;;;;;0.00;0.00;;;;;;;11.12;100.00;101683.06;10434550;28;20045;-78
2022/10/31 19:23:16;;;;;;;0.10;0.10;;;;;;;11.10;100.00;101679.69;10438526;28;20021;-77
2022/10/31 19:28:16;;;;;;;0.10;0.10;;;;;;;11.09;100.00;101664.69;10438706;28;20040;-75
2022/10/31 19:33:16;;;;;;;0.10;0.10;;;;;;;11.06;100.00;101654.28;10433323;28;20088;-75
2022/10/31 19:38:17;;;;;;;0.10;0.10;;;;;;;11.04;100.00;101642.91;10445219;28;20199;-77
2022/10/31 19:43:17;;;;;;;0.10;0.10;;;;;;;11.03;100.00;101638.59;10434554;28;20037;-76
2022/10/31 19:48:17;;;;;;;0.10;0.10;;;;;;;11.02;100.00;101631.56;10447910;28;20341;-78
2022/10/31 19:53:19;;;;;;;0.10;0.10;;;;;;;11.00;100.00;101623.72;10447937;28;20028;-78
2022/10/31 19:58:19;;;;;;;0.10;0.10;;;;;;;11.00;100.00;101617.53;10423900;28;20025;-77
2022/10/31 20:03:20;;;;;;;0.10;0.10;;;;;;;10.95;100.00;101598.47;10415155;28;20017;-78
2022/10/31 20:08:21;;;;;;;0.10;0.10;;;;;;;10.93;100.00;101600.41;10420713;28;20046;-77
2022/10/31 20:13:22;;;;;;;0.00;0.00;;;;;;;10.91;100.00;101584.59;10434308;28;20469;-75
2022/10/31 20:18:24;;;;;;;0.10;0.10;;;;;;;10.92;100.00;101583.59;10448496;28;20029;-77
2022/10/31 20:23:24;;;;;;;0.10;0.10;;;;;;;10.96;100.00;101573.47;10429673;28;20025;-77
2022/10/31 20:28:25;;;;;;;0.10;0.10;;;;;;;10.98;100.00;101592.84;10454237;28;20063;-77
2022/10/31 20:33:26;;;;;;;0.00;0.00;;;;;;;11.02;100.00;101583.56;10420721;28;20101;-77
2022/10/31 20:38:26;;;;;;;0.05;0.05;;;;;;;11.02;100.00;101565.75;10418444;28;20266;-78
2022/10/31 20:43:27;;;;;;;0.10;0.10;;;;;;;11.04;100.00;101571.78;10442420;28;20096;-78
2022/10/31 20:48:28;;;;;;;0.10;0.10;;;;;;;11.08;100.00;101573.19;10454186;28;20052;-76
2022/10/31 20:53:29;;;;;;;0.00;0.00;;;;;;;11.13;100.00;101556.75;10456297;28;20028;-77
2022/10/31 20:58:30;;;;;;;0.00;0.00;;;;;;;11.19;100.00;101550.81;10544102;22;20036;-79
2022/10/31 21:03:30;;;;;;;0.10;0.10;;;;;;;11.26;100.00;101543.09;10446097;28;20100;-78
2022/10/31 21:08:31;;;;;;;0.08;0.08;;;;;;;11.33;100.00;101541.53;10456737;28;20033;-78
2022/10/31 21:13:34;;;;;;;0.10;0.10;;;;;;;11.36;100.00;101532.38;10440849;28;20029;-78
2022/10/31 21:18:36;;;;;;;0.10;0.10;;;;;;;11.42;100.00;101526.47;10462361;28;20602;-78
2022/10/31 21:23:37;;;;;;;0.10;0.10;;;;;;;11.47;100.00;101508.19;10456348;28;20079;-78
2022/10/31 21:28:37;;;;;;;0.10;0.10;;;;;;;11.50;100.00;101503.41;10423152;28;20140;-78
2022/10/31 21:33:38;;;;;;;0.10;0.10;;;;;;;11.53;100.00;101507.59;10434902;28;20025;-78
2022/10/31 21:38:39;;;;;;;0.10;0.10;;;;;;;11.57;100.00;101509.78;10458884;28;20773;-78
2022/10/31 21:43:42;;;;;;;0.00;0.00;;;;;;;11.60;100.00;101498.00;10452225;28;20021;-78
2022/10/31 21:48:43;;;;;;;0.10;0.10;;;;;;;11.61;100.00;101480.19;10468976;28;20100;-78
2022/10/31 21:59:04;;;;;;;0.10;0.10;;;;;;;11.65;100.00;101478.88;10461225;28;20467;-78
2022/10/31 22:04:04;;;;;;;0.10;0.10;;;;;;;11.65;100.00;101463.69;10457392;28;20033;-78
2022/10/31 22:09:07;;;;;;;0.10;0.10;;;;;;;11.66;100.00;101448.53;10425653;28;20031;-78
2022/10/31 22:14:13;;;;;;;0.10;0.10;;;;;;;11.66;100.00;101440.50;10459578;28;20050;-78
2022/10/31 22:19:13;;;;;;;0.10;0.10;;;;;;;11.63;100.00;101422.97;10443068;28;20018;-78
2022/10/31 22:24:15;;;;;;;0.00;0.00;;;;;;;11.60;100.00;101441.13;10395126;28;20025;-78
2022/10/31 22:29:17;;;;;;;0.10;0.10;;;;;;;11.59;100.00;101436.78;10412359;28;20017;-78
2022/10/31 22:34:18;;;;;;;0.10;0.10;;;;;;;11.55;100.00;101415.75;10423815;28;20095;-78
2022/10/31 22:39:18;;;;;;;0.10;0.10;;;;;;;11.51;100.00;101410.84;10439907;28;20087;-78
2022/10/31 22:44:18;;;;;;;0.10;0.10;;;;;;;11.48;100.00;101413.81;10420452;28;20272;-78
2022/10/31 22:49:19;;;;;;;0.10;0.10;;;;;;;11.45;100.00;101422.13;10435642;28;20075;-77
2022/10/31 22:54:19;;;;;;;0.10;0.10;;;;;;;11.49;100.00;101421.69;10420245;28;20029;-78
2022/10/31 22:59:19;;;;;;;0.00;0.00;;;;;;;11.51;100.00;101414.34;10434651;28;20018;-78
2022/10/31 23:04:20;;;;;;;0.10;0.10;;;;;;;11.51;100.00;101406.34;10443916;28;20025;-78
2022/10/31 23:09:20;;;;;;;0.10;0.10;;;;;;;11.50;100.00;101385.16;10434936;28;20033;-78
2022/10/31 23:14:21;;;;;;;0.10;0.10;;;;;;;11.53;100.00;101390.19;10419780;28;20018;-78